Terminal Aerodrome Forecast
Issued by NWS Tuscon, AZ

Home | Current Version | Previous Version | Text Only | Print | Product List | Glossary On
Versions: 1 2 3 4 5 6 7 8 9 10 11 12 13
000
FTUS45 KTWC 241120
TAFTUS
TAF
KTUS 241120Z 2412/2512 14007KT P6SM SKC
     FM241800 27007KT P6SM FEW100 SCT250
     FM242200 30010KT P6SM BKN090
     FM250700 14007KT P6SM FEW090 SCT120=

USA.gov is the U.S. government's official web portal to all federal, state and local government web resources and services.